Terminal Aerodrome Forecast
Issued by NWS Pueblo, CO

Home | Current Version | Previous Version | Text Only | Print | Product List | Glossary On
Versions: 1 2 3 4 5 6 7 8 9 10 11 12 13 14 15 16 17 18 19 20 21 22 23 24 25 26 27 28
000
FTUS45 KPUB 230703 AAA
TAFCOS
TAF AMD
KCOS 230703Z 2307/2406 33009KT P6SM SCT070 BKN140
     FM231800 35015G25KT P6SM SCT050
     FM240000 36010KT P6SM SCT070=

USA.gov is the U.S. government's official web portal to all federal, state and local government web resources and services.